createdAt,value
2023-03-23T16:00:24.749Z,10.77
2023-03-23T16:03:18.805Z,7.53
2023-03-23T16:06:06.939Z,11.80
2023-03-23T16:08:55.976Z,13.88
2023-03-23T16:11:43.992Z,10.43
2023-03-23T16:14:31.595Z,11.52
2023-03-23T16:17:21.973Z,12.02
2023-03-23T16:20:15.741Z,14.73
2023-03-23T16:23:03.528Z,9.32
2023-03-23T16:25:51.270Z,13.75
2023-03-23T16:28:39.498Z,15.57
2023-03-23T16:31:27.227Z,12.43
2023-03-23T16:34:15.714Z,14.23
2023-03-23T16:37:03.421Z,15.65
2023-03-23T16:39:51.163Z,14.10
2023-03-23T16:42:38.740Z,18.77
2023-03-23T16:45:27.541Z,28.05
2023-03-23T16:48:16.810Z,26.77
2023-03-23T16:51:04.827Z,23.30
2023-03-23T16:53:52.458Z,23.70
2023-03-23T16:56:40.468Z,27.58
2023-03-23T16:59:29.163Z,25.67
2023-03-23T17:02:17.137Z,26.33
2023-03-23T17:05:04.961Z,21.00
2023-03-23T17:07:53.181Z,31.20
2023-03-23T17:10:41.955Z,27.83
2023-03-23T17:13:32.091Z,26.27
2023-03-23T17:16:19.739Z,30.30
2023-03-23T17:19:07.847Z,34.72
2023-03-23T17:21:55.587Z,28.98
2023-03-23T17:24:44.148Z,29.90
2023-03-23T17:27:32.315Z,20.98
2023-03-23T17:30:20.215Z,18.15
2023-03-23T17:33:12.631Z,16.67
2023-03-23T17:36:03.161Z,17.60
2023-03-23T17:39:02.390Z,20.38
2023-03-23T17:41:50.160Z,27.25
2023-03-23T17:44:38.217Z,26.00
2023-03-23T17:47:26.327Z,37.03
2023-03-23T17:50:14.387Z,25.40
2023-03-23T17:53:02.338Z,33.25
2023-03-23T17:55:53.564Z,71.25
2023-03-23T17:58:41.285Z,148.20
2023-03-23T18:01:29.009Z,53.13
2023-03-23T18:04:17.461Z,45.63
2023-03-23T18:07:07.542Z,49.85
2023-03-23T18:10:01.613Z,67.38
2023-03-23T18:12:51.667Z,49.63
2023-03-23T18:15:45.671Z,65.13
2023-03-23T18:18:37.461Z,33.58
2023-03-23T18:21:26.288Z,27.25
2023-03-23T18:24:15.546Z,50.05
2023-03-23T18:27:03.900Z,54.90
2023-03-23T18:29:53.981Z,66.07
2023-03-23T18:32:42.538Z,44.70
2023-03-23T18:35:39.630Z,65.72
2023-03-23T18:38:28.979Z,55.40
2023-03-23T18:41:18.411Z,58.70
2023-03-23T18:44:06.541Z,51.85
2023-03-23T18:46:54.381Z,52.13
2023-03-23T18:49:42.043Z,56.38
2023-03-23T18:52:33.121Z,88.97
2023-03-23T18:55:22.098Z,104.32
2023-03-23T18:58:10.639Z,93.70
2023-03-23T19:00:58.545Z,107.43
2023-03-23T19:03:46.893Z,136.65
2023-03-23T19:06:37.731Z,145.27
2023-03-23T19:09:25.761Z,139.55
2023-03-23T19:12:16.102Z,125.35
2023-03-23T19:15:07.272Z,166.88
2023-03-23T19:17:56.688Z,148.20
2023-03-23T19:21:12.710Z,141.13
2023-03-23T19:23:55.289Z,110.55
2023-03-23T19:26:45.203Z,77.45
2023-03-23T19:29:33.224Z,99.15
2023-03-23T19:32:21.208Z,71.40
2023-03-23T19:35:10.179Z,62.10
2023-03-23T19:37:58.025Z,59.08
2023-03-23T19:40:58.485Z,109.50
2023-03-23T19:43:56.458Z,80.90
2023-03-23T19:46:49.271Z,97.30
2023-03-23T19:49:37.300Z,123.10
2023-03-23T19:52:25.097Z,109.10
2023-03-23T19:55:12.985Z,78.13
2023-03-23T19:58:00.694Z,101.35
2023-03-23T20:00:48.894Z,104.15
2023-03-23T20:03:37.123Z,93.88
2023-03-23T20:06:24.814Z,73.72
2023-03-23T20:09:12.425Z,80.55
2023-03-23T20:12:00.193Z,59.42
2023-03-23T20:14:47.879Z,59.17
2023-03-23T20:17:35.660Z,45.42
2023-03-23T20:20:23.808Z,53.38
2023-03-23T20:23:11.451Z,46.88
2023-03-23T20:26:06.886Z,32.58
2023-03-23T20:28:55.188Z,35.97
2023-03-23T20:31:43.479Z,39.50
2023-03-23T20:34:31.747Z,34.05
2023-03-23T20:37:20.799Z,28.30
2023-03-23T20:40:15.160Z,34.92
2023-03-23T20:43:03.999Z,38.63
2023-03-23T20:45:52.651Z,33.00
2023-03-23T20:48:41.457Z,30.23
2023-03-23T20:51:29.180Z,42.10
2023-03-23T20:54:19.165Z,36.20
2023-03-23T20:57:08.432Z,35.45
2023-03-23T20:59:56.579Z,42.15
2023-03-23T21:02:44.651Z,42.80
2023-03-23T21:05:32.343Z,41.50
2023-03-23T21:08:20.194Z,49.65
2023-03-23T21:11:10.085Z,52.47
2023-03-23T21:13:57.861Z,54.53
2023-03-23T21:16:45.730Z,48.85
2023-03-23T21:19:34.456Z,58.92
2023-03-23T21:22:22.640Z,43.42
2023-03-23T21:25:10.374Z,48.75
2023-03-23T21:27:58.091Z,48.63
2023-03-23T21:30:48.378Z,50.78
2023-03-23T21:33:36.213Z,53.25
2023-03-23T21:36:24.979Z,119.10
2023-03-23T21:39:12.862Z,136.82
2023-03-23T21:42:02.060Z,113.10
2023-03-23T21:44:49.775Z,116.55
2023-03-23T21:47:38.344Z,98.93
2023-03-23T21:50:26.047Z,88.85
2023-03-23T21:53:18.524Z,84.50
2023-03-23T21:56:07.647Z,84.40
2023-03-23T21:58:56.815Z,71.63
2023-03-23T22:01:44.607Z,79.18
2023-03-23T22:04:32.350Z,66.55
2023-03-23T22:07:23.358Z,58.95
2023-03-23T22:10:11.067Z,71.47
2023-03-23T22:12:58.831Z,60.03
2023-03-23T22:15:52.102Z,62.50
2023-03-23T22:18:43.556Z,56.85
2023-03-23T22:21:31.464Z,50.15
2023-03-23T22:24:19.141Z,50.42
2023-03-23T22:27:07.341Z,46.83
2023-03-23T22:29:55.099Z,53.55
2023-03-23T22:32:43.128Z,45.35
2023-03-23T22:35:30.965Z,47.13
2023-03-23T22:38:18.786Z,44.67
2023-03-23T22:41:08.005Z,41.47
2023-03-23T22:43:55.925Z,37.45
2023-03-23T22:46:43.635Z,28.40
2023-03-23T22:49:32.958Z,29.83
2023-03-23T22:52:20.800Z,30.13
2023-03-23T22:55:09.499Z,23.45
2023-03-23T22:57:57.198Z,23.27
2023-03-23T23:00:48.319Z,24.15
2023-03-23T23:03:37.111Z,20.63
2023-03-23T23:06:25.869Z,18.20
2023-03-23T23:09:13.689Z,13.95
2023-03-23T23:12:01.384Z,22.13
2023-03-23T23:14:49.182Z,15.75
2023-03-23T23:17:39.148Z,18.80
2023-03-23T23:20:27.051Z,12.63
2023-03-23T23:23:14.709Z,16.52
2023-03-23T23:26:02.985Z,12.10
2023-03-23T23:28:51.147Z,16.67
2023-03-23T23:31:38.958Z,13.10
2023-03-23T23:34:26.736Z,17.02
2023-03-23T23:37:14.482Z,17.77
2023-03-23T23:40:02.968Z,12.00
2023-03-23T23:42:52.379Z,27.23
2023-03-23T23:45:40.146Z,19.10
2023-03-23T23:48:28.558Z,15.30
2023-03-23T23:51:17.724Z,17.65
2023-03-23T23:54:05.486Z,18.20
2023-03-23T23:56:53.195Z,18.13
2023-03-23T23:59:41.513Z,20.63
